Aeroporto :
LOGIN :

Iscrizione | Disclaimer

   EN    FR    IT 

 










Sommario :    VFR   VFR Marginale   IFR   IFR Intensivo   IFR Molto Intensivo
Visibilità : 
Base nubi : 
>= 8 km
>= 3000ft
5 / 8 km
1000 / 3000 ft
1500m / 5 km
500 / 1000 ft
800 / 1500m
200 / 500 ft
< 800m
< 200 ft
Simboli :   Temporali  Nebbia  Neve Forte  Precipitazioni Forti  Vento > 20 kt
SIGMETs :   Varie  Temporali  Ghiacco  Turbolenza  Onda orograficha  Ceneri Vulcaniche






- Altitudine del aeroporto : 1910 ft
- Codice IATA : RDZ


LFCR - Rodez

ULTIMO METAR :
  • 232100Z AUTO 22009KT 9999 RA BKN008/// OVC012/// ///TCU 02/01 Q1003

METARs OBSOLETI :
  • 232030Z AUTO 21009KT 9999 OVC010 02/01 Q1002
  • 232000Z AUTO 22009KT 9999 -RA BKN008 OVC012 01/01 Q1002
  • 231930Z AUTO 21003KT 170V230 8000 -SN BKN007 BKN013 OVC024 01/01 Q1002
  • 231900Z AUTO 21006KT 170V250 4200 -SN BR BKN008/// BKN014/// OVC019/// ///TCU 01/00 Q1002
  • 231830Z AUTO 24012KT 9999 -RA OVC010/// //////TCU 03/01 Q1002
  • 231800Z AUTO 22008KT 190V260 9999 OVC010 03/01 Q1002
  • 231730Z AUTO 24010KT 9999 OVC010 03/01 Q1002
  • 231700Z AUTO 24013KT 9999 -RA OVC011/// ///TCU 03/02 Q1002
  • 231630Z AUTO 24013KT 9999 OVC015 04/02 Q1001

Previsioni scadute.



MetMap, La meteo Aeronautica in un colpo d'occhio ! - Copyright ORBIFLY Dicembre 2007 - Disclaimer

ORBIFLY MET'MAP TEAM :

Programmazione e sviluppo : Alexandra Zaïnal
Concezione : Baudouin d'Aumeries
Supporto tecnico e logistico : Manuel Goepfert
Aiuto : Marc-Olivier Méhu
Aiuto per la traduzione : Arnaldo La Scala




FONTI E CREDITI :

   NOAA